• Join FlightAware (Why Join?)
  • Login
  • US Flag 
Rudolph Flight #1: Arrived! 
10:09AM EST


 

Airport Tracker/Info


-or-


 

Live Flight TrackerFlight Track Log ✈ SWA17 ✈ 17-May-2014 ✈ KMDW - KPIT

Flight Track Log - Related Links

Times and Time Zones

All times are in EDT time to prevent confusion due to time zone crossing. See the SWA17 flight status page for this flight to view local times or setup timezone preferences in your user account.

Time Position Orientation Groundspeed Altitude Reporting Facility
EDT Latitude Longitude Course Direction KTS MPH feet Rate Location/Type
09:09AM 41.7500 -87.7667 103° East 193 222 2,500  Level Chicago TRACON
09:10AM 41.7367 -87.6889 103° East 217 250 4,700 2,940 Climbing Chicago Center
09:11AM 41.7400 -87.5914 87° East 266 306 8,200 3,960 Climbing Chicago Center
09:12AM 41.7461 -87.4750 86° East 289 333 12,900 3,960 Climbing Chicago Center
09:13AM 41.7511 -87.3497 87° East 338 389 16,400 3,240 Climbing Chicago Center
09:14AM 41.7564 -87.2167 87° East 364 419 19,600 3,120 Climbing Chicago Center
09:15AM 41.7608 -87.0717 88° East 387 445 22,800 2,820 Climbing Chicago Center
09:16AM 41.7631 -86.9194 89° East 404 465 25,500 2,460 Climbing Chicago Center
09:17AM 41.7650 -86.7600 89° East 425 489 27,900 2,400 Climbing Chicago Center
09:18AM 41.7664 -86.5728 89° East 451 519 30,500 2,460 Climbing Chicago Center
09:19AM 41.7672 -86.4042 90° East 454 522 33,000 2,160 Climbing Chicago Center
09:20AM 41.7631 -86.2350 92° East 454 522 35,000 960 Climbing Chicago Center
09:21AM 41.7522 -86.0656 95° East 455 524 35,000 120 Level Chicago Center
09:22AM 41.7417 -85.8964 95° East 455 524 35,300 780 Climbing Chicago Center
09:23AM 41.7306 -85.7142 95° East 483 556 36,600 1,560 Climbing Chicago Center
09:24AM 41.7194 -85.5308 95° East 487 560 38,500 1,740 Climbing Chicago Center
09:25AM 41.7036 -85.3383 96° East 474 545 40,200 1,200 Climbing Chicago Center
09:26AM 41.6942 -85.1678 94° East 482 555 41,000 360 Climbing Chicago Center
09:27AM 41.6792 -84.9567 95° East 477 549 41,000  Level Chicago Center
09:28AM 41.6717 -84.8531 96° East 474 545 41,000  Level Cleveland Center
09:29AM 41.6614 -84.6775 94° East 474 545 41,000  Level Cleveland Center
09:30AM 41.6528 -84.4672 93° East 474 545 41,000  Level Cleveland Center
09:31AM 41.6442 -84.2922 94° East 473 544 41,000  Level Cleveland Center
09:32AM 41.6367 -84.1178 93° East 473 544 41,000  Level Cleveland Center
09:33AM 41.6275 -83.9250 94° East 473 544 41,000  Level Cleveland Center
09:34AM 41.6189 -83.7494 94° East 474 545 41,000  Level Cleveland Center
09:35AM 41.6106 -83.5742 94° East 476 548 41,000  Level Cleveland Center
09:36AM 41.5964 -83.3994 96° East 477 549 41,000 -420 Level Cleveland Center
09:37AM 41.5764 -83.2264 99° East 476 548 40,200 -900 Descending Cleveland Center
09:38AM 41.5297 -83.0533 110° East 464 534 39,200 -1,020 Descending Cleveland Center
09:39AM 41.4883 -82.8886 108° East 464 534 38,200 -960 Descending Cleveland Center
09:40AM 41.4447 -82.7233 109° East 467 537 37,300 -1,260 Descending Cleveland Center
09:41AM 41.4008 -82.5556 109° East 472 543 35,700 -1,260 Descending Cleveland Center
09:42AM 41.3492 -82.3614 109° East 473 544 34,800 -1,320 Descending Cleveland Center
09:43AM 41.3047 -82.1944 109° East 474 545 33,000 -900 Descending Cleveland Center
09:44AM 41.2628 -82.0372 109° East 476 548 33,000  Level Cleveland Center
09:45AM 41.2178 -81.8719 110° East 478 550 33,000 -660 Level Cleveland Center
09:46AM 41.1736 -81.7058 109° East 478 550 31,700 -1,500 Descending Cleveland Center
09:47AM 41.1256 -81.5347 110° East 477 549 30,000 -1,560 Descending Cleveland Center
09:48AM 41.0717 -81.3419 110° East 476 548 28,600 -2,100 Descending Cleveland Center
09:50AM 41.0275 -81.1814 110° East 466 536 25,800 -2,760 Descending Cleveland Center
09:51AM 40.9842 -81.0317 111° Southeast 447 514 22,900 -2,820 Descending Cleveland Center
09:52AM 40.9428 -80.8828 110° East 437 503 20,000 -2,580 Descending Cleveland Center
09:53AM 40.9031 -80.7403 110° East 419 482 17,700 -2,580 Descending Cleveland Center
09:54AM 40.8492 -80.6114 119° Southeast 391 450 14,800 -2,700 Descending Cleveland Center
09:55AM 40.7728 -80.5203 138° Southeast 371 427 12,200 -2,220 Descending Cleveland Center
09:56AM 40.6978 -80.4350 139° Southeast 356 410 10,300 -1,620 Descending Cleveland Center
09:57AM 40.6300 -80.3667 143° Southeast 307 353 9,000 -1,380 Descending Cleveland Center
09:58AM 40.6106 -80.2664 104° East 292 336 7,500 -1,620 Descending Cleveland Center
09:59AM 40.5956 -80.1417 99° East 290 334 5,700 -1,620 Descending Cleveland Center
10:00AM 40.5747 -80.0486 106° East 287 330 4,300 -840 Descending Cleveland Center
10:01AM 40.5292 -79.9747 129° Southeast 262 302 4,000 -180 Descending Cleveland Center
10:02AM 40.4861 -80.0139 215° Southwest 232 267 4,000 -540 Level Cleveland Center
10:03AM 40.4828 -80.0800 266° West 201 231 3,000 -900 Descending Cleveland Center
10:04AM 40.4839 -80.1275 272° West 145 167 2,200 -720 Descending Cleveland Center
10:05AM 40.4847 -80.1786 271° West 126 145 1,600 -600 Descending Cleveland Center